sensor_id;sensor_type;location;lat;lon;timestamp;pressure;altitude;pressure_sealevel;temperature;humidity
73242;BME280;65659;49.234;-2.094;2023-06-26T00:00:42;100883.46;;;19.39;50.39
73242;BME280;65659;49.234;-2.094;2023-06-26T00:03:07;100884.16;;;19.17;50.38
73242;BME280;65659;49.234;-2.094;2023-06-26T00:05:32;100883.57;;;19.40;50.36
73242;BME280;65659;49.234;-2.094;2023-06-26T00:07:59;100885.58;;;19.40;50.34
73242;BME280;65659;49.234;-2.094;2023-06-26T00:10:24;100884.56;;;19.18;50.32
73242;BME280;65659;49.234;-2.094;2023-06-26T00:12:50;100886.78;;;19.34;50.34
73242;BME280;65659;49.234;-2.094;2023-06-26T00:15:16;100885.75;;;19.31;50.29
73242;BME280;65659;49.234;-2.094;2023-06-26T00:17:42;100888.33;;;19.29;50.23
73242;BME280;65659;49.234;-2.094;2023-06-26T00:20:08;100886.86;;;19.00;50.17
73242;BME280;65659;49.234;-2.094;2023-06-26T00:22:33;100890.85;;;19.19;50.19
73242;BME280;65659;49.234;-2.094;2023-06-26T00:24:59;100891.72;;;19.18;50.16
73242;BME280;65659;49.234;-2.094;2023-06-26T00:27:24;100895.66;;;18.95;50.15
73242;BME280;65659;49.234;-2.094;2023-06-26T00:29:50;100901.31;;;19.22;50.09
73242;BME280;65659;49.234;-2.094;2023-06-26T00:32:15;100901.58;;;19.19;50.18
73242;BME280;65659;49.234;-2.094;2023-06-26T00:34:41;100903.51;;;19.21;50.22
73242;BME280;65659;49.234;-2.094;2023-06-26T00:37:07;100903.37;;;18.93;50.29
73242;BME280;65659;49.234;-2.094;2023-06-26T00:39:33;100904.46;;;18.98;50.18
73242;BME280;65659;49.234;-2.094;2023-06-26T00:41:59;100905.84;;;19.17;50.19
73242;BME280;65659;49.234;-2.094;2023-06-26T00:44:24;100908.42;;;18.92;50.09
73242;BME280;65659;49.234;-2.094;2023-06-26T00:46:50;100907.79;;;18.92;49.99
73242;BME280;65659;49.234;-2.094;2023-06-26T00:49:16;100907.79;;;18.88;49.89
73242;BME280;65659;49.234;-2.094;2023-06-26T00:51:42;100912.30;;;19.15;49.72
73242;BME280;65659;49.234;-2.094;2023-06-26T00:54:08;100913.52;;;19.12;49.63
73242;BME280;65659;49.234;-2.094;2023-06-26T00:56:33;100911.83;;;19.37;49.57
73242;BME280;65659;49.234;-2.094;2023-06-26T00:58:59;100915.08;;;19.15;49.44
73242;BME280;65659;49.234;-2.094;2023-06-26T01:01:24;100913.14;;;19.13;49.48
73242;BME280;65659;49.234;-2.094;2023-06-26T01:03:50;100914.34;;;19.16;49.44
73242;BME280;65659;49.234;-2.094;2023-06-26T01:06:15;100915.17;;;19.03;49.22
73242;BME280;65659;49.234;-2.094;2023-06-26T01:08:42;100914.85;;;19.32;49.19
73242;BME280;65659;49.234;-2.094;2023-06-26T01:11:07;100915.24;;;19.42;49.04
73242;BME280;65659;49.234;-2.094;2023-06-26T01:13:33;100917.67;;;19.15;49.15
73242;BME280;65659;49.234;-2.094;2023-06-26T01:15:59;100915.39;;;19.16;49.26
73242;BME280;65659;49.234;-2.094;2023-06-26T01:18:24;100917.05;;;19.39;49.40
73242;BME280;65659;49.234;-2.094;2023-06-26T01:20:50;100918.19;;;19.22;49.39
73242;BME280;65659;49.234;-2.094;2023-06-26T01:23:20;100918.84;;;19.38;49.52
73242;BME280;65659;49.234;-2.094;2023-06-26T01:25:49;100919.96;;;19.41;49.54
73242;BME280;65659;49.234;-2.094;2023-06-26T01:28:08;100921.26;;;19.61;49.68
73242;BME280;65659;49.234;-2.094;2023-06-26T01:30:33;100922.89;;;19.45;49.61
73242;BME280;65659;49.234;-2.094;2023-06-26T01:32:59;100924.82;;;19.32;49.50
73242;BME280;65659;49.234;-2.094;2023-06-26T01:35:25;100930.54;;;19.55;49.46
73242;BME280;65659;49.234;-2.094;2023-06-26T01:37:50;100932.38;;;19.25;49.50
73242;BME280;65659;49.234;-2.094;2023-06-26T01:40:16;100936.02;;;19.41;49.62
73242;BME280;65659;49.234;-2.094;2023-06-26T01:42:41;100935.01;;;19.30;49.75
73242;BME280;65659;49.234;-2.094;2023-06-26T01:45:10;100941.74;;;19.08;49.65
73242;BME280;65659;49.234;-2.094;2023-06-26T01:47:35;100940.31;;;19.22;49.76
73242;BME280;65659;49.234;-2.094;2023-06-26T01:50:02;100942.77;;;19.20;49.77
73242;BME280;65659;49.234;-2.094;2023-06-26T01:52:29;100945.70;;;19.15;49.88
73242;BME280;65659;49.234;-2.094;2023-06-26T01:55:00;100947.93;;;19.15;49.85
73242;BME280;65659;49.234;-2.094;2023-06-26T01:57:16;100948.88;;;19.15;49.96
73242;BME280;65659;49.234;-2.094;2023-06-26T01:59:42;100953.10;;;19.14;49.91
73242;BME280;65659;49.234;-2.094;2023-06-26T02:02:07;100955.76;;;19.11;49.92
73242;BME280;65659;49.234;-2.094;2023-06-26T02:04:32;100954.07;;;19.42;49.68
73242;BME280;65659;49.234;-2.094;2023-06-26T02:06:59;100953.17;;;18.90;49.65
73242;BME280;65659;49.234;-2.094;2023-06-26T02:09:24;100951.15;;;19.12;49.50
73242;BME280;65659;49.234;-2.094;2023-06-26T02:11:49;100950.77;;;19.05;49.49
73242;BME280;65659;49.234;-2.094;2023-06-26T02:14:15;100950.48;;;18.79;49.42
73242;BME280;65659;49.234;-2.094;2023-06-26T02:16:40;100948.48;;;19.01;49.35
73242;BME280;65659;49.234;-2.094;2023-06-26T02:19:06;100949.91;;;18.97;49.44
73242;BME280;65659;49.234;-2.094;2023-06-26T02:21:31;100951.27;;;19.18;49.54
73242;BME280;65659;49.234;-2.094;2023-06-26T02:23:57;100952.58;;;19.22;49.52
73242;BME280;65659;49.234;-2.094;2023-06-26T02:26:23;100955.74;;;18.90;49.77
73242;BME280;65659;49.234;-2.094;2023-06-26T02:28:48;100962.16;;;19.11;49.82
73242;BME280;65659;49.234;-2.094;2023-06-26T02:31:14;100966.14;;;19.07;49.89
73242;BME280;65659;49.234;-2.094;2023-06-26T02:33:41;100962.58;;;19.08;49.82
73242;BME280;65659;49.234;-2.094;2023-06-26T02:36:05;100961.63;;;19.03;49.84
73242;BME280;65659;49.234;-2.094;2023-06-26T02:38:31;100966.72;;;18.83;49.77
73242;BME280;65659;49.234;-2.094;2023-06-26T02:40:57;100969.22;;;18.76;49.82
73242;BME280;65659;49.234;-2.094;2023-06-26T02:43:22;100966.66;;;18.79;49.75
73242;BME280;65659;49.234;-2.094;2023-06-26T02:45:48;100965.30;;;19.00;49.75
73242;BME280;65659;49.234;-2.094;2023-06-26T02:48:14;100966.43;;;18.72;49.79
73242;BME280;65659;49.234;-2.094;2023-06-26T02:50:40;100967.65;;;18.92;49.85
73242;BME280;65659;49.234;-2.094;2023-06-26T02:53:05;100965.92;;;18.90;49.82
73242;BME280;65659;49.234;-2.094;2023-06-26T02:55:33;100966.48;;;18.83;49.79
73242;BME280;65659;49.234;-2.094;2023-06-26T02:57:57;100961.93;;;18.87;49.67
73242;BME280;65659;49.234;-2.094;2023-06-26T03:00:23;100960.89;;;18.84;49.58
73242;BME280;65659;49.234;-2.094;2023-06-26T03:02:48;100961.95;;;18.79;49.58
73242;BME280;65659;49.234;-2.094;2023-06-26T03:05:14;100960.61;;;18.72;49.57
73242;BME280;65659;49.234;-2.094;2023-06-26T03:07:39;100963.86;;;18.73;49.45
73242;BME280;65659;49.234;-2.094;2023-06-26T03:10:06;100967.59;;;18.71;49.40
73242;BME280;65659;49.234;-2.094;2023-06-26T03:12:31;100969.21;;;18.69;49.38
73242;BME280;65659;49.234;-2.094;2023-06-26T03:14:57;100969.20;;;18.70;49.33
73242;BME280;65659;49.234;-2.094;2023-06-26T03:17:22;100973.30;;;18.63;49.46
73242;BME280;65659;49.234;-2.094;2023-06-26T03:19:48;100971.91;;;18.62;49.49
73242;BME280;65659;49.234;-2.094;2023-06-26T03:22:14;100969.61;;;18.37;49.48
73242;BME280;65659;49.234;-2.094;2023-06-26T03:24:39;100969.04;;;18.87;49.47
73242;BME280;65659;49.234;-2.094;2023-06-26T03:27:05;100973.45;;;18.38;49.45
73242;BME280;65659;49.234;-2.094;2023-06-26T03:29:31;100971.04;;;18.69;49.30
73242;BME280;65659;49.234;-2.094;2023-06-26T03:31:56;100974.23;;;18.68;49.30
73242;BME280;65659;49.234;-2.094;2023-06-26T03:34:22;100973.11;;;18.62;49.37
73242;BME280;65659;49.234;-2.094;2023-06-26T03:36:48;100971.62;;;18.64;49.34
73242;BME280;65659;49.234;-2.094;2023-06-26T03:39:14;100975.97;;;18.52;49.51
73242;BME280;65659;49.234;-2.094;2023-06-26T03:41:39;100983.62;;;18.22;49.66
73242;BME280;65659;49.234;-2.094;2023-06-26T03:44:05;100982.85;;;18.44;49.67
73242;BME280;65659;49.234;-2.094;2023-06-26T03:46:31;100983.83;;;18.91;49.64
73242;BME280;65659;49.234;-2.094;2023-06-26T03:48:56;100985.43;;;18.43;49.66
73242;BME280;65659;49.234;-2.094;2023-06-26T03:51:22;100995.70;;;18.66;49.60
73242;BME280;65659;49.234;-2.094;2023-06-26T03:53:48;101001.26;;;18.38;49.65
73242;BME280;65659;49.234;-2.094;2023-06-26T03:56:13;101007.03;;;18.39;49.66
73242;BME280;65659;49.234;-2.094;2023-06-26T03:58:39;101004.90;;;18.39;49.65
73242;BME280;65659;49.234;-2.094;2023-06-26T04:01:05;101009.21;;;18.12;49.68
73242;BME280;65659;49.234;-2.094;2023-06-26T04:03:31;101008.45;;;18.36;49.69
73242;BME280;65659;49.234;-2.094;2023-06-26T04:05:56;101006.82;;;18.86;49.63
73242;BME280;65659;49.234;-2.094;2023-06-26T04:08:24;101010.68;;;18.40;49.52
73242;BME280;65659;49.234;-2.094;2023-06-26T04:10:47;101014.49;;;18.34;49.54
73242;BME280;65659;49.234;-2.094;2023-06-26T04:13:12;101022.26;;;18.58;49.51
73242;BME280;65659;49.234;-2.094;2023-06-26T04:15:38;101028.80;;;18.36;49.44
73242;BME280;65659;49.234;-2.094;2023-06-26T04:18:04;101027.18;;;18.35;49.44
73242;BME280;65659;49.234;-2.094;2023-06-26T04:20:29;101022.31;;;18.35;49.38
73242;BME280;65659;49.234;-2.094;2023-06-26T04:22:55;101017.53;;;18.39;49.28
73242;BME280;65659;49.234;-2.094;2023-06-26T04:25:21;101022.62;;;18.41;49.19
73242;BME280;65659;49.234;-2.094;2023-06-26T04:27:47;101022.75;;;18.50;49.01
73242;BME280;65659;49.234;-2.094;2023-06-26T04:30:13;101022.31;;;18.28;48.95
73242;BME280;65659;49.234;-2.094;2023-06-26T04:32:37;101023.43;;;18.61;48.81
73242;BME280;65659;49.234;-2.094;2023-06-26T04:35:03;101020.75;;;18.70;48.69
73242;BME280;65659;49.234;-2.094;2023-06-26T04:37:29;101021.60;;;18.77;48.62
73242;BME280;65659;49.234;-2.094;2023-06-26T04:39:54;101020.61;;;18.84;48.54
73242;BME280;65659;49.234;-2.094;2023-06-26T04:42:20;101020.85;;;18.91;48.45
73242;BME280;65659;49.234;-2.094;2023-06-26T04:44:46;101026.41;;;19.01;48.33
73242;BME280;65659;49.234;-2.094;2023-06-26T04:47:11;101029.06;;;18.81;48.34
73242;BME280;65659;49.234;-2.094;2023-06-26T04:49:37;101032.11;;;19.13;48.27
73242;BME280;65659;49.234;-2.094;2023-06-26T04:52:03;101035.36;;;18.92;48.27
73242;BME280;65659;49.234;-2.094;2023-06-26T04:54:28;101038.77;;;19.13;48.37
73242;BME280;65659;49.234;-2.094;2023-06-26T04:56:54;101039.69;;;18.86;48.49
73242;BME280;65659;49.234;-2.094;2023-06-26T04:59:20;101044.44;;;18.83;48.63
73242;BME280;65659;49.234;-2.094;2023-06-26T05:01:45;101049.62;;;18.88;48.65
73242;BME280;65659;49.234;-2.094;2023-06-26T05:04:11;101049.69;;;19.13;48.73
73242;BME280;65659;49.234;-2.094;2023-06-26T05:06:37;101050.97;;;18.84;48.91
73242;BME280;65659;49.234;-2.094;2023-06-26T05:09:02;101049.60;;;18.86;48.97
73242;BME280;65659;49.234;-2.094;2023-06-26T05:11:28;101048.64;;;18.92;49.05
73242;BME280;65659;49.234;-2.094;2023-06-26T05:13:54;101047.13;;;18.96;49.04
73242;BME280;65659;49.234;-2.094;2023-06-26T05:16:19;101047.66;;;19.02;49.10
73242;BME280;65659;49.234;-2.094;2023-06-26T05:18:45;101047.78;;;19.10;49.05
73242;BME280;65659;49.234;-2.094;2023-06-26T05:21:11;101047.95;;;19.35;49.20
73242;BME280;65659;49.234;-2.094;2023-06-26T05:23:36;101054.87;;;19.14;49.29
73242;BME280;65659;49.234;-2.094;2023-06-26T05:26:03;101059.62;;;19.45;49.24
73242;BME280;65659;49.234;-2.094;2023-06-26T05:28:29;101062.87;;;19.23;49.35
73242;BME280;65659;49.234;-2.094;2023-06-26T05:30:54;101063.41;;;19.26;49.42
73242;BME280;65659;49.234;-2.094;2023-06-26T05:33:23;101063.58;;;19.33;49.31
73242;BME280;65659;49.234;-2.094;2023-06-26T05:35:45;101056.82;;;19.35;49.31
73242;BME280;65659;49.234;-2.094;2023-06-26T05:38:12;101056.55;;;19.44;49.15
73242;BME280;65659;49.234;-2.094;2023-06-26T05:40:37;101063.04;;;19.31;49.01
73242;BME280;65659;49.234;-2.094;2023-06-26T05:43:03;101062.67;;;19.60;48.59
73242;BME280;65659;49.234;-2.094;2023-06-26T05:45:28;101062.82;;;19.43;48.26
73242;BME280;65659;49.234;-2.094;2023-06-26T05:47:53;101066.02;;;19.51;47.88
73242;BME280;65659;49.234;-2.094;2023-06-26T05:50:20;101068.54;;;19.65;47.55
73242;BME280;65659;49.234;-2.094;2023-06-26T05:52:46;101073.16;;;19.83;47.07
73242;BME280;65659;49.234;-2.094;2023-06-26T05:55:13;101075.51;;;20.00;46.83
73242;BME280;65659;49.234;-2.094;2023-06-26T05:57:37;101082.36;;;20.07;46.60
73242;BME280;65659;49.234;-2.094;2023-06-26T06:00:02;101081.48;;;20.23;46.36
73242;BME280;65659;49.234;-2.094;2023-06-26T06:02:27;101083.84;;;20.11;45.86
73242;BME280;65659;49.234;-2.094;2023-06-26T06:04:53;101084.79;;;20.16;45.89
73242;BME280;65659;49.234;-2.094;2023-06-26T06:07:19;101085.60;;;20.32;45.51
73242;BME280;65659;49.234;-2.094;2023-06-26T06:09:44;101078.97;;;20.52;45.20
73242;BME280;65659;49.234;-2.094;2023-06-26T06:12:10;101074.94;;;20.42;44.95
73242;BME280;65659;49.234;-2.094;2023-06-26T06:14:36;101072.80;;;20.46;44.28
73242;BME280;65659;49.234;-2.094;2023-06-26T06:17:02;101080.85;;;20.52;44.09
73242;BME280;65659;49.234;-2.094;2023-06-26T06:19:27;101088.09;;;20.58;43.84
73242;BME280;65659;49.234;-2.094;2023-06-26T06:21:53;101092.01;;;20.70;43.57
73242;BME280;65659;49.234;-2.094;2023-06-26T06:24:18;101094.18;;;20.44;43.13
73242;BME280;65659;49.234;-2.094;2023-06-26T06:26:44;101097.97;;;20.44;43.11
73242;BME280;65659;49.234;-2.094;2023-06-26T06:29:10;101099.18;;;20.71;42.89
73242;BME280;65659;49.234;-2.094;2023-06-26T06:31:35;101099.91;;;20.52;42.68
73242;BME280;65659;49.234;-2.094;2023-06-26T06:34:01;101099.05;;;20.36;42.66
73242;BME280;65659;49.234;-2.094;2023-06-26T06:36:27;101102.35;;;20.60;42.88
73242;BME280;65659;49.234;-2.094;2023-06-26T06:38:52;101101.62;;;20.68;42.74
73242;BME280;65659;49.234;-2.094;2023-06-26T06:41:18;101107.63;;;20.45;42.59
73242;BME280;65659;49.234;-2.094;2023-06-26T06:43:44;101105.09;;;20.61;42.49
73242;BME280;65659;49.234;-2.094;2023-06-26T06:46:10;101103.88;;;20.45;42.43
73242;BME280;65659;49.234;-2.094;2023-06-26T06:48:35;101101.54;;;20.81;42.28
73242;BME280;65659;49.234;-2.094;2023-06-26T06:51:01;101103.70;;;20.81;42.47
73242;BME280;65659;49.234;-2.094;2023-06-26T06:53:27;101101.52;;;20.47;42.22
73242;BME280;65659;49.234;-2.094;2023-06-26T06:55:52;101111.21;;;20.81;42.13
73242;BME280;65659;49.234;-2.094;2023-06-26T06:58:18;101114.14;;;20.72;41.94
73242;BME280;65659;49.234;-2.094;2023-06-26T07:00:44;101119.18;;;20.77;41.56
73242;BME280;65659;49.234;-2.094;2023-06-26T07:03:09;101120.44;;;21.20;41.22
73242;BME280;65659;49.234;-2.094;2023-06-26T07:05:35;101124.50;;;21.42;40.82
73242;BME280;65659;49.234;-2.094;2023-06-26T07:08:02;101128.06;;;21.34;39.62
73242;BME280;65659;49.234;-2.094;2023-06-26T07:10:27;101129.46;;;21.26;39.31
73242;BME280;65659;49.234;-2.094;2023-06-26T07:12:52;101137.71;;;21.87;38.57
73242;BME280;65659;49.234;-2.094;2023-06-26T07:15:17;101142.23;;;21.75;38.18
73242;BME280;65659;49.234;-2.094;2023-06-26T07:17:43;101144.53;;;22.00;37.82
73242;BME280;65659;49.234;-2.094;2023-06-26T07:20:09;101146.32;;;22.09;37.73
73242;BME280;65659;49.234;-2.094;2023-06-26T07:22:34;101146.08;;;22.47;37.45
73242;BME280;65659;49.234;-2.094;2023-06-26T07:25:00;101149.63;;;22.02;37.64
73242;BME280;65659;49.234;-2.094;2023-06-26T07:27:25;101146.60;;;21.75;37.60
73242;BME280;65659;49.234;-2.094;2023-06-26T07:29:53;101147.36;;;22.61;37.34
73242;BME280;65659;49.234;-2.094;2023-06-26T07:32:16;101156.54;;;22.48;37.36
73242;BME280;65659;49.234;-2.094;2023-06-26T07:34:43;101158.25;;;22.38;37.30
73242;BME280;65659;49.234;-2.094;2023-06-26T07:37:08;101155.50;;;22.60;37.28
73242;BME280;65659;49.234;-2.094;2023-06-26T07:39:34;101149.10;;;22.42;37.05
73242;BME280;65659;49.234;-2.094;2023-06-26T07:42:00;101163.02;;;21.79;37.45
73242;BME280;65659;49.234;-2.094;2023-06-26T07:44:26;101166.13;;;21.71;37.80
73242;BME280;65659;49.234;-2.094;2023-06-26T07:46:52;101161.46;;;21.49;37.73
73242;BME280;65659;49.234;-2.094;2023-06-26T07:49:18;101167.72;;;21.88;37.41
73242;BME280;65659;49.234;-2.094;2023-06-26T07:51:43;101168.64;;;21.93;37.25
73242;BME280;65659;49.234;-2.094;2023-06-26T07:54:09;101165.78;;;22.03;38.03
73242;BME280;65659;49.234;-2.094;2023-06-26T07:56:52;101173.13;;;22.44;38.50
73242;BME280;65659;49.234;-2.094;2023-06-26T07:59:00;101181.64;;;21.73;38.51
73242;BME280;65659;49.234;-2.094;2023-06-26T08:01:26;101179.18;;;21.91;38.56
73242;BME280;65659;49.234;-2.094;2023-06-26T08:03:51;101169.01;;;22.44;38.34
73242;BME280;65659;49.234;-2.094;2023-06-26T08:06:18;101168.66;;;22.50;37.78
73242;BME280;65659;49.234;-2.094;2023-06-26T08:08:43;101174.89;;;22.39;36.32
73242;BME280;65659;49.234;-2.094;2023-06-26T08:11:08;101192.86;;;22.81;35.26
73242;BME280;65659;49.234;-2.094;2023-06-26T08:13:33;101195.40;;;22.68;35.29
73242;BME280;65659;49.234;-2.094;2023-06-26T08:15:59;101182.30;;;22.71;35.54
73242;BME280;65659;49.234;-2.094;2023-06-26T08:18:24;101181.06;;;22.44;35.55
73242;BME280;65659;49.234;-2.094;2023-06-26T08:20:50;101185.40;;;22.62;35.57
73242;BME280;65659;49.234;-2.094;2023-06-26T08:23:15;101183.34;;;22.41;35.90
73242;BME280;65659;49.234;-2.094;2023-06-26T08:25:41;101184.26;;;22.32;35.48
73242;BME280;65659;49.234;-2.094;2023-06-26T08:28:06;101195.68;;;22.44;35.08
73242;BME280;65659;49.234;-2.094;2023-06-26T08:30:33;101194.76;;;22.52;35.37
73242;BME280;65659;49.234;-2.094;2023-06-26T08:32:57;101196.18;;;22.08;35.48
73242;BME280;65659;49.234;-2.094;2023-06-26T08:35:23;101201.76;;;21.88;35.83
73242;BME280;65659;49.234;-2.094;2023-06-26T08:37:50;101201.56;;;22.19;35.73
73242;BME280;65659;49.234;-2.094;2023-06-26T08:40:17;101200.63;;;21.87;35.52
73242;BME280;65659;49.234;-2.094;2023-06-26T08:42:40;101193.90;;;22.34;35.38
73242;BME280;65659;49.234;-2.094;2023-06-26T08:45:06;101196.23;;;22.39;35.17
73242;BME280;65659;49.234;-2.094;2023-06-26T08:47:34;101203.30;;;22.62;34.02
73242;BME280;65659;49.234;-2.094;2023-06-26T08:50:07;101213.56;;;22.75;33.41
73242;BME280;65659;49.234;-2.094;2023-06-26T08:52:28;101200.55;;;22.64;32.27
73242;BME280;65659;49.234;-2.094;2023-06-26T08:54:54;101203.69;;;22.97;32.17
73242;BME280;65659;49.234;-2.094;2023-06-26T08:57:19;101209.40;;;22.71;32.41
73242;BME280;65659;49.234;-2.094;2023-06-26T08:59:41;101209.27;;;22.94;32.24
73242;BME280;65659;49.234;-2.094;2023-06-26T09:02:07;101208.18;;;23.11;31.06
73242;BME280;65659;49.234;-2.094;2023-06-26T09:04:33;101216.52;;;23.19;31.08
73242;BME280;65659;49.234;-2.094;2023-06-26T09:06:57;101218.82;;;23.20;31.05
73242;BME280;65659;49.234;-2.094;2023-06-26T09:09:39;101228.20;;;23.20;31.31
73242;BME280;65659;49.234;-2.094;2023-06-26T09:11:56;101218.50;;;23.27;31.45
73242;BME280;65659;49.234;-2.094;2023-06-26T09:14:14;101209.67;;;23.54;31.34
73242;BME280;65659;49.234;-2.094;2023-06-26T09:16:41;101213.43;;;23.58;31.03
73242;BME280;65659;49.234;-2.094;2023-06-26T09:19:10;101211.84;;;23.37;31.18
73242;BME280;65659;49.234;-2.094;2023-06-26T09:21:33;101209.36;;;23.09;31.51
73242;BME280;65659;49.234;-2.094;2023-06-26T09:23:56;101211.20;;;23.32;31.56
73242;BME280;65659;49.234;-2.094;2023-06-26T09:26:23;101213.58;;;23.18;31.60
73242;BME280;65659;49.234;-2.094;2023-06-26T09:28:47;101218.24;;;23.97;31.40
73242;BME280;65659;49.234;-2.094;2023-06-26T09:31:13;101218.77;;;23.55;31.47
73242;BME280;65659;49.234;-2.094;2023-06-26T09:33:39;101221.26;;;23.84;31.43
73242;BME280;65659;49.234;-2.094;2023-06-26T09:36:06;101220.84;;;23.69;31.22
73242;BME280;65659;49.234;-2.094;2023-06-26T09:38:29;101228.64;;;23.53;31.16
73242;BME280;65659;49.234;-2.094;2023-06-26T09:43:36;101241.27;;;24.44;30.62
73242;BME280;65659;49.234;-2.094;2023-06-26T09:45:59;101232.44;;;24.08;30.28
73242;BME280;65659;49.234;-2.094;2023-06-26T09:48:44;101237.10;;;24.08;29.96
73242;BME280;65659;49.234;-2.094;2023-06-26T09:53:26;101218.43;;;24.88;30.61
73242;BME280;65659;49.234;-2.094;2023-06-26T09:55:29;101215.19;;;23.95;30.67
73242;BME280;65659;49.234;-2.094;2023-06-26T09:58:00;101218.76;;;24.05;30.02
73242;BME280;65659;49.234;-2.094;2023-06-26T10:00:21;101217.12;;;23.86;29.78
73242;BME280;65659;49.234;-2.094;2023-06-26T10:02:47;101226.93;;;24.20;29.37
73242;BME280;65659;49.234;-2.094;2023-06-26T10:05:13;101237.80;;;24.18;29.54
73242;BME280;65659;49.234;-2.094;2023-06-26T10:07:50;101224.84;;;24.79;29.49
73242;BME280;65659;49.234;-2.094;2023-06-26T10:10:10;101237.33;;;24.40;30.31
73242;BME280;65659;49.234;-2.094;2023-06-26T10:12:36;101246.26;;;23.80;29.96
73242;BME280;65659;49.234;-2.094;2023-06-26T10:17:24;101245.71;;;24.13;28.97
73242;BME280;65659;49.234;-2.094;2023-06-26T10:19:54;101252.78;;;24.00;29.00
73242;BME280;65659;49.234;-2.094;2023-06-26T10:22:22;101254.53;;;23.88;29.51
73242;BME280;65659;49.234;-2.094;2023-06-26T10:24:57;101247.18;;;24.37;29.08
73242;BME280;65659;49.234;-2.094;2023-06-26T10:27:15;101257.60;;;23.92;29.27
73242;BME280;65659;49.234;-2.094;2023-06-26T10:29:48;101253.75;;;24.25;29.51
73242;BME280;65659;49.234;-2.094;2023-06-26T10:32:02;101258.97;;;24.84;29.03
73242;BME280;65659;49.234;-2.094;2023-06-26T10:34:30;101259.43;;;24.78;28.24
73242;BME280;65659;49.234;-2.094;2023-06-26T10:36:47;101255.17;;;24.51;28.45
73242;BME280;65659;49.234;-2.094;2023-06-26T10:39:14;101261.28;;;24.83;28.08
73242;BME280;65659;49.234;-2.094;2023-06-26T10:41:40;101270.86;;;24.64;27.82
73242;BME280;65659;49.234;-2.094;2023-06-26T10:44:08;101269.48;;;24.70;27.70
73242;BME280;65659;49.234;-2.094;2023-06-26T10:46:28;101263.41;;;24.71;27.59
73242;BME280;65659;49.234;-2.094;2023-06-26T10:49:01;101268.58;;;24.97;27.42
73242;BME280;65659;49.234;-2.094;2023-06-26T10:51:20;101265.44;;;24.73;27.56
73242;BME280;65659;49.234;-2.094;2023-06-26T10:53:54;101267.52;;;24.64;27.48
73242;BME280;65659;49.234;-2.094;2023-06-26T10:56:11;101266.03;;;24.58;28.00
73242;BME280;65659;49.234;-2.094;2023-06-26T10:58:44;101259.44;;;24.70;27.97
73242;BME280;65659;49.234;-2.094;2023-06-26T11:01:19;101261.94;;;24.46;27.93
73242;BME280;65659;49.234;-2.094;2023-06-26T11:03:30;101263.70;;;24.51;27.67
73242;BME280;65659;49.234;-2.094;2023-06-26T11:08:20;101266.38;;;24.72;27.75
73242;BME280;65659;49.234;-2.094;2023-06-26T11:10:51;101265.33;;;25.15;27.85
73242;BME280;65659;49.234;-2.094;2023-06-26T11:13:13;101277.23;;;24.86;28.25
73242;BME280;65659;49.234;-2.094;2023-06-26T11:15:47;101273.55;;;24.74;28.10
73242;BME280;65659;49.234;-2.094;2023-06-26T11:18:02;101275.16;;;24.77;28.26
73242;BME280;65659;49.234;-2.094;2023-06-26T11:20:28;101269.93;;;24.81;28.55
73242;BME280;65659;49.234;-2.094;2023-06-26T11:22:56;101267.62;;;24.79;29.04
73242;BME280;65659;49.234;-2.094;2023-06-26T11:25:21;101283.07;;;24.97;29.01
73242;BME280;65659;49.234;-2.094;2023-06-26T11:27:45;101277.46;;;25.21;28.35
73242;BME280;65659;49.234;-2.094;2023-06-26T11:32:40;101279.13;;;25.20;28.64
73242;BME280;65659;49.234;-2.094;2023-06-26T11:35:15;101284.85;;;24.94;28.55
73242;BME280;65659;49.234;-2.094;2023-06-26T11:37:31;101280.85;;;24.99;28.65
73242;BME280;65659;49.234;-2.094;2023-06-26T11:39:54;101282.67;;;24.79;28.50
73242;BME280;65659;49.234;-2.094;2023-06-26T11:42:29;101286.98;;;25.05;28.71
73242;BME280;65659;49.234;-2.094;2023-06-26T11:44:46;101288.09;;;24.98;28.83
73242;BME280;65659;49.234;-2.094;2023-06-26T11:47:19;101294.00;;;24.89;28.45
73242;BME280;65659;49.234;-2.094;2023-06-26T11:49:40;101287.94;;;24.90;28.45
73242;BME280;65659;49.234;-2.094;2023-06-26T11:52:13;101289.25;;;25.27;28.58
73242;BME280;65659;49.234;-2.094;2023-06-26T11:54:37;101287.70;;;24.50;28.63
73242;BME280;65659;49.234;-2.094;2023-06-26T11:57:04;101295.42;;;24.97;28.89
73242;BME280;65659;49.234;-2.094;2023-06-26T11:59:17;101292.49;;;25.12;29.06
73242;BME280;65659;49.234;-2.094;2023-06-26T12:01:51;101304.24;;;24.86;29.14
73242;BME280;65659;49.234;-2.094;2023-06-26T12:04:16;101296.92;;;25.18;29.15
73242;BME280;65659;49.234;-2.094;2023-06-26T12:06:42;101294.25;;;24.92;29.30
73242;BME280;65659;49.234;-2.094;2023-06-26T12:09:02;101298.95;;;24.74;29.45
73242;BME280;65659;49.234;-2.094;2023-06-26T12:11:26;101301.85;;;24.49;29.82
73242;BME280;65659;49.234;-2.094;2023-06-26T12:13:52;101299.88;;;24.65;29.95
73242;BME280;65659;49.234;-2.094;2023-06-26T12:16:17;101296.83;;;24.49;30.29
73242;BME280;65659;49.234;-2.094;2023-06-26T12:18:42;101289.12;;;24.56;30.09
73242;BME280;65659;49.234;-2.094;2023-06-26T12:21:08;101283.06;;;24.66;30.13
73242;BME280;65659;49.234;-2.094;2023-06-26T12:23:38;101277.39;;;24.92;29.79
73242;BME280;65659;49.234;-2.094;2023-06-26T12:28:24;101287.45;;;24.37;29.81
73242;BME280;65659;49.234;-2.094;2023-06-26T12:33:22;101294.08;;;24.78;29.79
73242;BME280;65659;49.234;-2.094;2023-06-26T12:35:42;101291.39;;;25.17;29.78
73242;BME280;65659;49.234;-2.094;2023-06-26T12:38:08;101293.90;;;24.94;29.76
73242;BME280;65659;49.234;-2.094;2023-06-26T12:40:34;101297.71;;;25.38;28.90
73242;BME280;65659;49.234;-2.094;2023-06-26T12:42:58;101292.97;;;25.92;28.39
73242;BME280;65659;49.234;-2.094;2023-06-26T12:45:46;101287.31;;;26.84;28.26
73242;BME280;65659;49.234;-2.094;2023-06-26T12:47:55;101285.90;;;26.34;28.35